Time;durP1;ratioP1;P1;durP2;ratioP2;P2;SDS_P1;SDS_P2;PMS_P1;PMS_P2;Temp;Humidity;BMP_temperature;BMP_pressure;BME280_temperature;BME280_humidity;BME280_pressure;Samples;Min_cycle;Max_cycle;Signal;HPM_P1;HPM_P2
2024/03/09 00:04:49;;;;;;;;;;;;;;;18.33;42.21;98720.94;10284690;28;862;-71
2024/03/09 00:09:45;;;;;;;;;;;;;;;18.33;42.12;98715.66;10284709;28;1273;-71
2024/03/09 00:14:41;;;;;;;;;;;;;;;18.31;42.35;98704.34;10284595;28;1921;-71
2024/03/09 00:19:39;;;;;;;;;;;;;;;18.30;42.21;98700.03;10284500;28;892;-71
2024/03/09 00:24:35;;;;;;;;;;;;;;;18.29;42.10;98693.06;10285051;28;1064;-71
2024/03/09 00:29:33;;;;;;;;;;;;;;;18.28;42.28;98694.84;10285316;28;882;-71
2024/03/09 00:34:29;;;;;;;;;;;;;;;18.26;41.99;98685.31;10284840;28;1905;-71
2024/03/09 00:39:25;;;;;;;;;;;;;;;18.25;42.20;98676.56;10284293;28;873;-71
2024/03/09 00:44:21;;;;;;;;;;;;;;;18.25;42.04;98670.44;10284101;28;893;-71
2024/03/09 00:49:17;;;;;;;;;;;;;;;18.25;42.23;98659.91;10284123;28;917;-71
2024/03/09 00:54:13;;;;;;;;;;;;;;;18.23;42.08;98661.78;10284450;28;1963;-71
2024/03/09 00:59:10;;;;;;;;;;;;;;;18.22;42.36;98655.66;10283799;28;815;-71
2024/03/09 01:04:06;;;;;;;;;;;;;;;18.20;42.20;98641.72;10284206;28;834;-71
2024/03/09 01:09:02;;;;;;;;;;;;;;;18.20;42.09;98635.59;10283359;28;1346;-71
2024/03/09 01:14:00;;;;;;;;;;;;;;;18.18;41.99;98633.94;10282886;28;1909;-71
2024/03/09 01:18:56;;;;;;;;;;;;;;;18.18;42.17;98633.94;10290710;28;858;-71
2024/03/09 01:23:52;;;;;;;;;;;;;;;18.16;42.14;98634.97;10290932;28;838;-71
2024/03/09 01:28:48;;;;;;;;;;;;;;;18.15;42.26;98628.81;10291576;28;825;-71
2024/03/09 01:33:44;;;;;;;;;;;;;;;18.15;42.22;98626.19;10291037;28;1952;-71
2024/03/09 01:38:40;;;;;;;;;;;;;;;18.13;42.05;98628.09;10290959;28;862;-71
2024/03/09 01:43:36;;;;;;;;;;;;;;;18.12;42.16;98636.09;10290718;28;803;-71
2024/03/09 01:48:32;;;;;;;;;;;;;;;18.12;42.17;98622.91;10290576;28;865;-71
2024/03/09 01:53:28;;;;;;;;;;;;;;;18.11;42.21;98622.06;10290377;28;1897;-71
2024/03/09 01:58:24;;;;;;;;;;;;;;;18.10;42.17;98622.13;10289614;28;842;-71
2024/03/09 02:03:20;;;;;;;;;;;;;;;18.08;42.00;98619.63;10289996;28;814;-71
2024/03/09 02:08:15;;;;;;;;;;;;;;;18.07;42.16;98610.00;10289596;28;1173;-71
2024/03/09 02:13:11;;;;;;;;;;;;;;;18.07;42.13;98604.72;10289026;28;1913;-71
2024/03/09 02:18:07;;;;;;;;;;;;;;;18.07;42.13;98588.06;10289472;28;819;-71
2024/03/09 02:23:03;;;;;;;;;;;;;;;18.04;42.11;98594.38;10288707;28;965;-71
2024/03/09 02:27:59;;;;;;;;;;;;;;;18.05;42.08;98606.63;10289049;28;815;-71
2024/03/09 02:32:55;;;;;;;;;;;;;;;18.05;42.02;98601.34;10288353;28;1897;-71
2024/03/09 02:37:51;;;;;;;;;;;;;;;18.04;42.07;98590.88;10289081;28;803;-71
2024/03/09 02:43:07;;;;;;;;;;;;;;;18.02;42.24;98575.16;10287944;28;850;-71
2024/03/09 02:48:03;;;;;;;;;;;;;;;18.02;42.25;98576.94;10288316;28;842;-71
2024/03/09 02:53:00;;;;;;;;;;;;;;;18.02;42.05;98566.41;10286882;28;1949;-71
2024/03/09 02:57:56;;;;;;;;;;;;;;;18.01;42.14;98559.44;10288169;28;818;-71
2024/03/09 03:08:07;;;;;;;;;;;;;;;17.99;42.17;98556.91;10287625;28;1466;-71
2024/03/09 03:13:04;;;;;;;;;;;;;;;17.99;42.10;98558.69;10287320;28;1918;-71
2024/03/09 03:18:00;;;;;;;;;;;;;;;17.97;42.25;98548.22;10286522;28;756;-71
2024/03/09 03:22:59;;;;;;;;;;;;;;;17.97;42.15;98550.88;10286315;28;1132;-71
2024/03/09 03:27:56;;;;;;;;;;;;;;;17.95;42.28;98547.50;10286253;28;846;-71
2024/03/09 03:32:52;;;;;;;;;;;;;;;17.94;42.13;98545.78;10286460;28;1906;-70
2024/03/09 03:37:48;;;;;;;;;;;;;;;17.94;42.15;98545.78;10285662;28;918;-71
2024/03/09 03:42:44;;;;;;;;;;;;;;;17.92;42.28;98540.63;10286258;28;872;-71
2024/03/09 03:47:39;;;;;;;;;;;;;;;17.92;42.07;98545.03;10285474;28;901;-71
2024/03/09 03:52:38;;;;;;;;;;;;;;;17.92;42.21;98547.66;10284657;28;1959;-71
2024/03/09 03:57:34;;;;;;;;;;;;;;;17.90;42.29;98550.41;10285198;28;894;-71
2024/03/09 04:02:33;;;;;;;;;;;;;;;17.89;42.18;98537.31;10285045;28;776;-71
2024/03/09 04:07:30;;;;;;;;;;;;;;;17.88;42.07;98538.28;10284133;28;1216;-71
2024/03/09 04:12:26;;;;;;;;;;;;;;;17.87;42.21;98534.81;10284738;28;1914;-71
2024/03/09 04:17:22;;;;;;;;;;;;;;;17.86;42.13;98541.00;10285278;28;1030;-71
2024/03/09 04:22:18;;;;;;;;;;;;;;;17.86;42.01;98526.97;10285124;28;891;-71
2024/03/09 04:27:14;;;;;;;;;;;;;;;17.84;42.15;98523.59;10284683;28;1253;-71
2024/03/09 04:32:10;;;;;;;;;;;;;;;17.84;42.12;98518.31;10284789;28;1886;-71
2024/03/09 04:37:07;;;;;;;;;;;;;;;17.83;41.95;98514.00;10284288;28;860;-71
2024/03/09 04:42:04;;;;;;;;;;;;;;;17.85;42.27;98514.75;10285304;28;795;-71
2024/03/09 04:47:01;;;;;;;;;;;;;;;17.86;42.04;98505.88;10284018;28;976;-71
2024/03/09 04:51:57;;;;;;;;;;;;;;;17.86;42.06;98498.81;10288959;28;1886;-71
2024/03/09 04:56:53;;;;;;;;;;;;;;;17.87;42.18;98497.06;10291951;28;850;-71
2024/03/09 05:01:50;;;;;;;;;;;;;;;17.88;42.27;98490.84;10291738;28;830;-71
2024/03/09 05:06:45;;;;;;;;;;;;;;;17.87;41.96;98489.16;10291559;28;1358;-71
2024/03/09 05:11:41;;;;;;;;;;;;;;;17.88;42.18;98485.56;10291299;28;1905;-71
2024/03/09 05:16:37;;;;;;;;;;;;;;;17.89;42.18;98484.59;10292209;28;819;-71
2024/03/09 05:21:35;;;;;;;;;;;;;;;17.88;42.18;98475.00;10291027;28;861;-71
2024/03/09 05:26:34;;;;;;;;;;;;;;;17.90;41.98;98476.59;10291752;28;838;-71
2024/03/09 05:31:30;;;;;;;;;;;;;;;17.90;42.10;98465.22;10291186;28;1955;-71
2024/03/09 05:36:26;;;;;;;;;;;;;;;17.90;42.15;98460.78;10290625;28;921;-71
2024/03/09 05:41:22;;;;;;;;;;;;;;;17.92;42.28;98458.03;10289668;28;1156;-71
2024/03/09 05:46:18;;;;;;;;;;;;;;;17.92;42.11;98452.75;10290147;28;811;-72
2024/03/09 05:51:18;;;;;;;;;;;;;;;17.93;41.97;98446.56;10289858;28;1965;-71
2024/03/09 05:56:14;;;;;;;;;;;;;;;17.93;42.20;98441.28;10290365;28;880;-72
2024/03/09 06:01:10;;;;;;;;;;;;;;;17.94;42.14;98446.44;10288605;28;889;-71
2024/03/09 06:06:07;;;;;;;;;;;;;;;17.94;41.97;98446.44;10289103;28;1200;-71
2024/03/09 06:11:03;;;;;;;;;;;;;;;17.95;42.15;98450.78;10289251;28;827;-71
2024/03/09 06:16:00;;;;;;;;;;;;;;;17.96;42.05;98444.56;10289492;28;1965;-71
2024/03/09 06:20:56;;;;;;;;;;;;;;;17.96;42.13;98447.19;10288811;28;873;-71
2024/03/09 06:25:53;;;;;;;;;;;;;;;17.99;42.04;98454.06;10289713;28;948;-71
2024/03/09 06:30:49;;;;;;;;;;;;;;;17.98;42.27;98452.38;10288397;28;881;-75
2024/03/09 06:35:45;;;;;;;;;;;;;;;17.99;42.25;98448.78;10288183;28;2008;-71
2024/03/09 06:40:41;;;;;;;;;;;;;;;18.00;42.18;98452.28;10288643;28;917;-71
2024/03/09 06:45:37;;;;;;;;;;;;;;;18.00;42.13;98445.25;10287880;28;799;-70
2024/03/09 06:50:33;;;;;;;;;;;;;;;18.00;42.24;98445.25;10287646;28;945;-75
2024/03/09 06:55:31;;;;;;;;;;;;;;;18.01;42.00;98453.97;10287400;28;1902;-71
2024/03/09 07:00:29;;;;;;;;;;;;;;;17.99;42.20;98445.31;10287221;28;838;-71
2024/03/09 07:05:26;;;;;;;;;;;;;;;17.99;42.12;98454.06;10287024;28;981;-71
2024/03/09 07:10:22;;;;;;;;;;;;;;;17.99;42.42;98446.16;10287999;28;1336;-71
2024/03/09 07:15:20;;;;;;;;;;;;;;;17.96;42.39;98443.72;10286083;28;1925;-71
2024/03/09 07:20:23;;;;;;;;;;;;;;;17.94;42.25;98435.91;10287060;28;786;-74
2024/03/09 07:25:25;;;;;;;;;;;;;;;17.92;42.28;98443.09;10286564;28;798;-71
2024/03/09 07:30:21;;;;;;;;;;;;;;;17.91;42.16;98445.81;10286708;28;873;-71
2024/03/09 07:35:18;;;;;;;;;;;;;;;17.90;42.42;98438.88;10285526;28;1898;-71
2024/03/09 07:40:14;;;;;;;;;;;;;;;17.88;42.40;98422.28;10286313;28;830;-71
2024/03/09 07:45:16;;;;;;;;;;;;;;;17.88;42.41;98419.66;10286556;28;858;-71
2024/03/09 07:50:14;;;;;;;;;;;;;;;17.87;42.37;98403.00;10285483;28;773;-71
2024/03/09 07:55:11;;;;;;;;;;;;;;;17.87;42.21;98399.53;10285373;28;1898;-70
2024/03/09 08:00:08;;;;;;;;;;;;;;;17.87;42.20;98408.28;10285083;28;886;-71
2024/03/09 08:05:04;;;;;;;;;;;;;;;17.87;42.14;98429.34;10285035;28;842;-70
2024/03/09 08:10:00;;;;;;;;;;;;;;;17.88;42.41;98438.09;10284837;28;1188;-71
2024/03/09 08:14:56;;;;;;;;;;;;;;;17.89;42.26;98447.69;10284689;28;1981;-70
2024/03/09 08:19:51;;;;;;;;;;;;;;;17.89;42.26;98452.97;10285267;28;933;-71
2024/03/09 08:24:47;;;;;;;;;;;;;;;17.91;42.22;98445.81;10284449;28;1027;-71
2024/03/09 08:29:44;;;;;;;;;;;;;;;17.92;42.16;98455.41;10285415;28;849;-70
2024/03/09 08:34:40;;;;;;;;;;;;;;;17.92;42.31;98455.41;10284335;28;1906;-71
2024/03/09 08:39:36;;;;;;;;;;;;;;;17.93;42.43;98455.31;10284293;28;814;-70
2024/03/09 08:44:33;;;;;;;;;;;;;;;17.94;42.41;98450.88;10284183;28;879;-70
2024/03/09 08:49:29;;;;;;;;;;;;;;;17.94;42.45;98441.19;10285070;28;869;-71
2024/03/09 08:54:27;;;;;;;;;;;;;;;17.94;42.30;98435.91;10284352;28;1957;-71
2024/03/09 08:59:23;;;;;;;;;;;;;;;17.96;42.35;98427.91;10284431;28;866;-70
2024/03/09 09:04:20;;;;;;;;;;;;;;;17.98;42.27;98420.75;10284458;28;912;-70
2024/03/09 09:09:25;;;;;;;;;;;;;;;18.00;42.18;98425.91;10283692;28;1164;-71
2024/03/09 09:14:20;;;;;;;;;;;;;;;18.01;42.16;98412.63;10283519;28;1977;-71
2024/03/09 09:19:17;;;;;;;;;;;;;;;18.01;42.34;98417.91;10283468;28;918;-76
2024/03/09 09:24:13;;;;;;;;;;;;;;;18.02;42.42;98393.22;10283342;28;794;-71
2024/03/09 09:29:10;;;;;;;;;;;;;;;18.04;42.23;98401.88;10284138;28;791;-71
2024/03/09 09:34:10;;;;;;;;;;;;;;;18.05;42.31;98408.00;10283800;28;1894;-71
2024/03/09 09:39:06;;;;;;;;;;;;;;;18.05;42.27;98395.69;10289509;28;849;-71
2024/03/09 09:44:02;;;;;;;;;;;;;;;18.06;42.38;98400.00;10290335;28;786;-70
2024/03/09 09:48:58;;;;;;;;;;;;;;;18.07;42.41;98390.28;10291334;28;873;-73
2024/03/09 09:53:54;;;;;;;;;;;;;;;18.07;42.56;98377.13;10289316;28;1957;-72
2024/03/09 09:58:50;;;;;;;;;;;;;;;18.08;42.42;98374.38;10290414;28;960;-71
2024/03/09 10:03:45;;;;;;;;;;;;;;;18.08;42.54;98369.13;10290124;28;1128;-71
2024/03/09 10:08:42;;;;;;;;;;;;;;;18.10;42.53;98369.88;10289950;28;1311;-71
2024/03/09 10:13:37;;;;;;;;;;;;;;;18.11;42.37;98363.63;10288461;28;1961;-70
2024/03/09 10:18:33;;;;;;;;;;;;;;;18.12;42.62;98359.19;10289565;28;818;-71
2024/03/09 10:23:29;;;;;;;;;;;;;;;18.13;42.59;98356.47;10288675;28;852;-70
2024/03/09 10:28:25;;;;;;;;;;;;;;;18.14;42.49;98350.22;10289340;28;969;-71
2024/03/09 10:33:21;;;;;;;;;;;;;;;18.15;42.64;98344.00;10288355;28;1894;-71
2024/03/09 10:38:17;;;;;;;;;;;;;;;18.16;42.58;98344.88;10288239;28;875;-71
2024/03/09 10:43:13;;;;;;;;;;;;;;;18.18;42.51;98341.19;10288610;28;970;-71
2024/03/09 10:48:09;;;;;;;;;;;;;;;18.18;42.67;98341.19;10286605;28;951;-71
2024/03/09 10:53:07;;;;;;;;;;;;;;;18.19;42.62;98331.47;10287214;28;1949;-71
2024/03/09 10:58:04;;;;;;;;;;;;;;;18.22;42.73;98322.50;10287207;28;825;-71
2024/03/09 11:03:00;;;;;;;;;;;;;;;18.22;42.67;98312.81;10286991;28;802;-71
2024/03/09 11:07:56;;;;;;;;;;;;;;;18.23;42.96;98318.91;10286581;28;1388;-72
2024/03/09 11:12:52;;;;;;;;;;;;;;;18.25;42.75;98311.75;10286499;28;1980;-71
2024/03/09 11:17:49;;;;;;;;;;;;;;;18.26;42.83;98310.78;10286440;28;909;-70
2024/03/09 11:22:45;;;;;;;;;;;;;;;18.27;43.11;98315.97;10286533;28;818;-72
2024/03/09 11:27:41;;;;;;;;;;;;;;;18.28;42.64;98306.25;10286605;28;795;-69
2024/03/09 11:32:37;;;;;;;;;;;;;;;18.28;42.81;98303.63;10286853;28;1956;-72
2024/03/09 11:37:33;;;;;;;;;;;;;;;18.29;42.76;98303.53;10285183;28;973;-72
2024/03/09 11:42:29;;;;;;;;;;;;;;;18.29;42.88;98292.13;10286105;28;803;-71
2024/03/09 11:47:25;;;;;;;;;;;;;;;18.30;42.91;98289.38;10284778;28;826;-71
2024/03/09 11:52:22;;;;;;;;;;;;;;;18.32;42.92;98291.91;10285798;28;1955;-71
2024/03/09 11:57:18;;;;;;;;;;;;;;;18.33;42.95;98285.69;10285071;28;830;-71
2024/03/09 12:02:14;;;;;;;;;;;;;;;18.33;42.98;98275.13;10284522;28;939;-71
2024/03/09 12:07:10;;;;;;;;;;;;;;;18.35;43.13;98268.81;10284807;28;1268;-71
2024/03/09 12:12:05;;;;;;;;;;;;;;;18.35;42.93;98266.16;10284555;28;1975;-72
2024/03/09 12:17:03;;;;;;;;;;;;;;;18.37;43.26;98266.06;10284444;28;989;-71
2024/03/09 12:21:59;;;;;;;;;;;;;;;18.39;43.08;98256.22;10284316;28;779;-70
2024/03/09 12:26:55;;;;;;;;;;;;;;;18.40;43.23;98248.22;10284416;28;830;-71
2024/03/09 12:31:51;;;;;;;;;;;;;;;18.43;43.17;98241.91;10284740;28;1901;-71
2024/03/09 12:36:47;;;;;;;;;;;;;;;18.45;43.13;98242.63;10285431;28;917;-71
2024/03/09 12:41:43;;;;;;;;;;;;;;;18.47;43.30;98227.56;10284189;28;862;-70
2024/03/09 12:46:40;;;;;;;;;;;;;;;18.51;43.07;98225.53;10283884;28;868;-70
2024/03/09 12:51:39;;;;;;;;;;;;;;;18.54;43.10;98223.50;10284472;28;1897;-71
2024/03/09 12:56:34;;;;;;;;;;;;;;;18.57;43.11;98217.16;10283640;28;846;-71
2024/03/09 13:01:31;;;;;;;;;;;;;;;18.62;42.94;98215.06;10282984;28;1216;-72
2024/03/09 13:06:28;;;;;;;;;;;;;;;18.65;42.87;98209.56;10283402;28;1248;-73
2024/03/09 13:11:26;;;;;;;;;;;;;;;18.70;43.07;98201.31;10285302;28;1024;-70
2024/03/09 13:16:22;;;;;;;;;;;;;;;18.74;42.84;98197.50;10291069;28;885;-70
2024/03/09 13:21:20;;;;;;;;;;;;;;;18.77;42.98;98194.69;10291580;28;870;-70
2024/03/09 13:26:18;;;;;;;;;;;;;;;18.83;42.74;98195.06;10290751;28;846;-70
2024/03/09 13:31:16;;;;;;;;;;;;;;;18.89;42.84;98196.44;10290669;28;1577;-70
2024/03/09 13:36:18;;;;;;;;;;;;;;;18.95;42.59;98190.72;10290496;28;1894;-70
2024/03/09 13:41:14;;;;;;;;;;;;;;;19.00;42.58;98187.75;10290822;28;866;-70
2024/03/09 13:46:10;;;;;;;;;;;;;;;19.05;42.47;98183.81;10289497;28;867;-70
2024/03/09 13:51:08;;;;;;;;;;;;;;;19.11;42.43;98189.59;10289841;28;945;-70
2024/03/09 13:56:12;;;;;;;;;;;;;;;19.18;42.31;98177.63;10290163;28;1961;-70
2024/03/09 14:01:10;;;;;;;;;;;;;;;19.23;42.40;98175.44;10289515;28;858;-71
2024/03/09 14:06:07;;;;;;;;;;;;;;;19.26;42.32;98164.69;10289708;28;1104;-75
2024/03/09 14:11:06;;;;;;;;;;;;;;;19.32;42.30;98163.38;10289066;28;940;-70
2024/03/09 14:16:07;;;;;;;;;;;;;;;19.39;42.19;98165.44;10289341;28;1914;-70
2024/03/09 14:21:06;;;;;;;;;;;;;;;19.35;42.26;98163.97;10288658;28;969;-70
2024/03/09 14:26:02;;;;;;;;;;;;;;;19.40;42.27;98167.13;10288308;28;917;-70
2024/03/09 14:30:58;;;;;;;;;;;;;;;19.52;42.22;98169.78;10288302;28;839;-70
2024/03/09 14:35:56;;;;;;;;;;;;;;;19.58;42.20;98158.78;10288074;28;1894;-70
2024/03/09 14:40:52;;;;;;;;;;;;;;;19.63;42.13;98160.09;10288609;28;874;-70
2024/03/09 14:45:48;;;;;;;;;;;;;;;19.67;42.03;98153.66;10287708;28;1602;-70
2024/03/09 14:50:44;;;;;;;;;;;;;;;19.68;42.13;98162.44;10288928;28;776;-70
2024/03/09 14:55:40;;;;;;;;;;;;;;;19.72;42.07;98157.75;10287248;28;1893;-70
2024/03/09 15:05:38;;;;;;;;;;;;;;;19.80;42.07;98144.78;10287587;28;795;-71
2024/03/09 15:10:34;;;;;;;;;;;;;;;19.81;41.99;98141.19;10288124;28;1420;-70
2024/03/09 15:15:31;;;;;;;;;;;;;;;19.78;41.93;98139.63;10286566;28;1914;-70
2024/03/09 15:20:27;;;;;;;;;;;;;;;19.71;42.35;98141.06;10286547;28;962;-70
2024/03/09 15:25:26;;;;;;;;;;;;;;;19.70;42.24;98136.72;10286813;28;870;-70
2024/03/09 15:30:22;;;;;;;;;;;;;;;19.61;42.36;98140.03;10286008;28;882;-70
2024/03/09 15:35:18;;;;;;;;;;;;;;;19.61;42.31;98135.59;10285885;28;1898;-70
2024/03/09 15:40:16;;;;;;;;;;;;;;;19.68;42.30;98128.06;10285709;28;790;-70
2024/03/09 15:45:18;;;;;;;;;;;;;;;19.67;42.06;98124.56;10285588;28;835;-70
2024/03/09 15:50:16;;;;;;;;;;;;;;;19.63;42.25;98119.63;10285608;28;810;-70
2024/03/09 15:55:18;;;;;;;;;;;;;;;19.58;42.21;98108.56;10283810;28;1945;-70
2024/03/09 16:00:13;;;;;;;;;;;;;;;19.61;42.18;98108.31;10284732;28;853;-70
2024/03/09 16:05:13;;;;;;;;;;;;;;;19.59;42.28;98110.22;10284535;28;869;-70
2024/03/09 16:10:08;;;;;;;;;;;;;;;19.54;42.34;98112.38;10284095;28;1398;-70
2024/03/09 16:15:06;;;;;;;;;;;;;;;19.47;42.51;98115.50;10284280;28;1902;-70
2024/03/09 16:20:02;;;;;;;;;;;;;;;19.43;42.45;98111.41;10285300;28;839;-71
2024/03/09 16:24:58;;;;;;;;;;;;;;;19.41;42.48;98109.84;10284117;28;763;-70
2024/03/09 16:29:54;;;;;;;;;;;;;;;19.38;42.73;98108.25;10283897;28;907;-70
2024/03/09 16:34:52;;;;;;;;;;;;;;;19.36;42.52;98110.22;10284597;28;1886;-70
2024/03/09 16:39:49;;;;;;;;;;;;;;;19.34;42.57;98103.34;10284049;28;879;-70
2024/03/09 16:44:45;;;;;;;;;;;;;;;19.31;42.59;98107.06;10284947;28;1064;-71
2024/03/09 16:49:41;;;;;;;;;;;;;;;19.30;42.62;98112.47;10292245;28;772;-70
2024/03/09 16:54:37;;;;;;;;;;;;;;;19.27;42.52;98116.16;10291655;28;1910;-71
2024/03/09 16:59:33;;;;;;;;;;;;;;;19.26;42.67;98111.84;10291946;28;957;-71
2024/03/09 17:04:30;;;;;;;;;;;;;;;19.24;42.45;98119.88;10291729;28;814;-70
2024/03/09 17:09:30;;;;;;;;;;;;;;;19.23;42.60;98125.28;10291765;28;1145;-71
2024/03/09 17:14:28;;;;;;;;;;;;;;;19.22;42.52;98121.78;10292105;28;1969;-70
2024/03/09 17:19:27;;;;;;;;;;;;;;;19.21;42.62;98129.84;10291261;28;763;-71
2024/03/09 17:24:23;;;;;;;;;;;;;;;19.19;42.53;98132.59;10291201;28;838;-71
2024/03/09 17:29:20;;;;;;;;;;;;;;;19.19;42.66;98135.22;10290720;28;798;-71
2024/03/09 17:34:16;;;;;;;;;;;;;;;19.19;42.60;98140.50;10291389;28;1890;-70
2024/03/09 17:39:12;;;;;;;;;;;;;;;19.18;42.57;98152.06;10290344;28;862;-70
2024/03/09 17:44:10;;;;;;;;;;;;;;;19.18;42.53;98148.56;10290739;28;775;-69
2024/03/09 17:49:11;;;;;;;;;;;;;;;19.18;42.67;98145.94;10289949;28;981;-69
2024/03/09 17:54:07;;;;;;;;;;;;;;;19.16;42.64;98151.31;10290330;28;1947;-70
2024/03/09 17:59:03;;;;;;;;;;;;;;;19.16;42.61;98150.47;10289502;28;803;-69
2024/03/09 18:03:59;;;;;;;;;;;;;;;19.16;42.83;98147.84;10289514;28;914;-71
2024/03/09 18:08:55;;;;;;;;;;;;;;;19.15;42.82;98149.63;10289767;28;1105;-71
2024/03/09 18:13:50;;;;;;;;;;;;;;;19.15;42.54;98149.63;10288434;28;1971;-71
2024/03/09 18:18:49;;;;;;;;;;;;;;;19.15;42.61;98154.06;10289452;28;862;-71
2024/03/09 18:23:45;;;;;;;;;;;;;;;19.15;42.75;98154.94;10288684;28;913;-71
2024/03/09 18:28:40;;;;;;;;;;;;;;;19.15;42.75;98152.28;10288456;28;803;-71
2024/03/09 18:33:37;;;;;;;;;;;;;;;19.15;42.71;98147.00;10287627;28;1956;-71
2024/03/09 18:38:33;;;;;;;;;;;;;;;19.16;42.69;98135.47;10288174;28;793;-71
2024/03/09 18:43:30;;;;;;;;;;;;;;;19.17;42.75;98141.59;10287929;28;829;-71
2024/03/09 18:48:27;;;;;;;;;;;;;;;19.17;42.62;98137.13;10287703;28;810;-71
2024/03/09 18:53:23;;;;;;;;;;;;;;;19.18;42.80;98144.13;10287447;28;1893;-71
2024/03/09 18:58:19;;;;;;;;;;;;;;;19.18;42.73;98125.63;10287954;28;778;-71
2024/03/09 19:03:15;;;;;;;;;;;;;;;19.18;42.76;98130.09;10287143;28;913;-71
2024/03/09 19:08:11;;;;;;;;;;;;;;;19.19;42.80;98129.94;10286231;28;1224;-71
2024/03/09 19:13:07;;;;;;;;;;;;;;;19.19;42.70;98124.66;10286660;28;1965;-71
2024/03/09 19:18:03;;;;;;;;;;;;;;;19.20;42.83;98117.59;10286624;28;824;-71
2024/03/09 19:23:00;;;;;;;;;;;;;;;19.21;42.74;98127.22;10286415;28;848;-71
2024/03/09 19:27:57;;;;;;;;;;;;;;;19.20;42.88;98122.88;10286798;28;870;-70
2024/03/09 19:32:59;;;;;;;;;;;;;;;19.22;42.80;98136.81;10319697;28;1208;-70
2024/03/09 19:37:59;;;;;;;;;;;;;;;19.22;42.80;98126.25;10320244;28;952;-70
2024/03/09 19:42:57;;;;;;;;;;;;;;;19.22;42.70;98129.72;10320618;28;937;-69
2024/03/09 19:47:53;;;;;;;;;;;;;;;19.23;42.78;98130.56;10319185;28;983;-70
2024/03/09 19:52:49;;;;;;;;;;;;;;;19.24;42.84;98132.25;10319016;28;1973;-70
2024/03/09 19:57:47;;;;;;;;;;;;;;;19.25;42.64;98123.38;10319466;28;940;-70
2024/03/09 20:02:44;;;;;;;;;;;;;;;19.25;42.57;98128.66;10318759;28;810;-70
2024/03/09 20:07:40;;;;;;;;;;;;;;;19.26;42.73;98125.06;10318441;28;878;-70
2024/03/09 20:12:37;;;;;;;;;;;;;;;19.26;42.68;98112.69;10318237;28;1894;-70
2024/03/09 20:17:33;;;;;;;;;;;;;;;19.26;42.69;98107.41;10319001;28;858;-69
2024/03/09 20:22:29;;;;;;;;;;;;;;;19.27;42.71;98098.50;10318434;28;822;-70
2024/03/09 20:27:25;;;;;;;;;;;;;;;19.27;42.62;98103.78;10317564;28;770;-70
2024/03/09 20:32:21;;;;;;;;;;;;;;;19.28;42.50;98099.34;10354298;28;1890;-70
2024/03/09 20:37:17;;;;;;;;;;;;;;;19.28;42.75;98102.00;10358450;28;877;-69
2024/03/09 20:42:13;;;;;;;;;;;;;;;19.27;42.74;98100.31;10342218;28;989;-70
2024/03/09 20:47:09;;;;;;;;;;;;;;;19.26;42.65;98098.66;10331152;28;957;-70
2024/03/09 20:52:05;;;;;;;;;;;;;;;19.25;42.71;98094.31;10330987;28;1964;-70
2024/03/09 20:57:01;;;;;;;;;;;;;;;19.25;42.77;98092.50;10330345;28;860;-70
2024/03/09 21:01:56;;;;;;;;;;;;;;;19.24;42.79;98080.25;10330701;28;803;-70
2024/03/09 21:06:52;;;;;;;;;;;;;;;19.24;42.68;98072.34;10330528;28;932;-70
2024/03/09 21:11:49;;;;;;;;;;;;;;;19.24;42.80;98076.78;10329897;28;1953;-70
2024/03/09 21:16:46;;;;;;;;;;;;;;;19.22;42.64;98058.41;10329593;28;762;-70
2024/03/09 21:21:42;;;;;;;;;;;;;;;19.24;42.56;98055.66;10329316;28;969;-70
2024/03/09 21:26:38;;;;;;;;;;;;;;;19.23;42.59;98054.81;10329350;28;1014;-69
2024/03/09 21:31:34;;;;;;;;;;;;;;;19.22;42.58;98057.56;10328177;28;2009;-69
2024/03/09 21:36:30;;;;;;;;;;;;;;;19.21;42.42;98053.25;10328686;28;862;-69
2024/03/09 21:41:26;;;;;;;;;;;;;;;19.21;42.65;98047.97;10329188;28;834;-70
2024/03/09 21:46:22;;;;;;;;;;;;;;;19.19;42.60;98045.44;10328994;28;885;-70
2024/03/09 21:51:19;;;;;;;;;;;;;;;19.20;42.73;98051.53;10327992;28;1961;-69
2024/03/09 21:56:15;;;;;;;;;;;;;;;19.19;42.70;98041.94;10327825;28;798;-69
2024/03/09 22:01:11;;;;;;;;;;;;;;;19.19;42.70;98049.88;10327700;28;891;-69
2024/03/09 22:06:10;;;;;;;;;;;;;;;19.17;42.70;98046.50;10327415;28;891;-70
2024/03/09 22:11:12;;;;;;;;;;;;;;;19.16;42.62;98044.84;10327887;28;1894;-70
2024/03/09 22:16:08;;;;;;;;;;;;;;;19.16;42.68;98034.25;10328204;28;827;-69
2024/03/09 22:21:04;;;;;;;;;;;;;;;19.13;42.73;98019.50;10327838;28;810;-69
2024/03/09 22:25:59;;;;;;;;;;;;;;;19.12;42.59;98022.25;10327919;28;860;-69
2024/03/09 22:30:56;;;;;;;;;;;;;;;19.10;42.60;98009.16;10327050;28;1914;-69
2024/03/09 22:35:53;;;;;;;;;;;;;;;19.09;42.60;98011.91;10326720;28;800;-69
2024/03/09 22:40:49;;;;;;;;;;;;;;;19.09;42.69;98006.63;10327120;28;832;-69
2024/03/09 22:45:45;;;;;;;;;;;;;;;19.07;42.56;98006.75;10326439;28;849;-69
2024/03/09 22:50:40;;;;;;;;;;;;;;;19.07;42.81;98011.19;10326773;28;1955;-69
2024/03/09 22:55:37;;;;;;;;;;;;;;;19.05;42.75;98006.88;10326816;28;814;-69
2024/03/09 23:05:28;;;;;;;;;;;;;;;19.02;42.51;98004.47;10325484;28;886;-70
2024/03/09 23:10:24;;;;;;;;;;;;;;;19.03;42.62;98005.31;10325741;28;1874;-69
2024/03/09 23:15:21;;;;;;;;;;;;;;;19.01;42.80;98004.56;10326468;28;850;-70
2024/03/09 23:20:17;;;;;;;;;;;;;;;18.99;42.58;97999.44;10325416;28;894;-70
2024/03/09 23:25:14;;;;;;;;;;;;;;;19.00;42.77;97981.78;10325335;28;841;-69
2024/03/09 23:30:15;;;;;;;;;;;;;;;18.98;42.61;97968.69;10325361;28;1906;-69
2024/03/09 23:35:12;;;;;;;;;;;;;;;18.97;42.69;97966.19;10325262;28;818;-69
2024/03/09 23:40:08;;;;;;;;;;;;;;;18.96;42.75;97970.59;10325029;28;879;-70
2024/03/09 23:45:04;;;;;;;;;;;;;;;18.95;42.77;97962.81;10325678;28;814;-69
2024/03/09 23:50:00;;;;;;;;;;;;;;;18.94;42.60;97953.19;10324754;28;1953;-69
2024/03/09 23:54:56;;;;;;;;;;;;;;;18.93;42.60;97962.06;10324718;28;878;-69
2024/03/09 23:59:54;;;;;;;;;;;;;;;18.91;42.68;97956.91;10325301;28;891;-69
